Lovelock, NV (89419)

9:25 PM PDT on April 25, 2017 (GMT -0700)
Lovelock-Arobio Ln. | | Change Station
Active Advisory: Wind Advisory

Elev 3967 ft 40.18 °N, 118.51 °W | Updated 2 minutes ago

Overcast
Overcast
51.9 °F
Feels Like 51.9 °F
N
0.0
Wind Variable Wind from NNW
Gusts 2.0 mph

Today
High -- | Low -- °F
--% Chance of Precip.
Yesterday
High -- | Low -- °F
Precip. -- in
Pressure 29.94 in
Visibility 10.0 miles
Clouds Clear
Dew Point 26 °F
Humidity 37%
Rainfall 0.00 in
Snow Depth Not available.
6:00 AM 7:43 PM
Waning Crescent, 0% visible
METAR KLOL 260353Z AUTO 00000KT 10SM CLR 13/M06 A2997 RMK AO2 SLP139 T01281056 TSNO
Pressure 29.94 in
Visibility 10.0 miles
Clouds Clear
Dew Point 26 °F
Humidity 37%
Rainfall 0.00 in
Snow Depth Not available.
6:00 AM 7:43 PM
Waning Crescent, 0% visible
METAR KLOL 260353Z AUTO 00000KT 10SM CLR 13/M06 A2997 RMK AO2 SLP139 T01281056 TSNO

Get Your Daily Forecast Email!

Thanks for signing up!

Be on the lookout for a verification email in your inbox.

You'll start receiving severe weather alerts in your inbox..

×

10-Day Weather Forecast

Almanac

Astronomy

Apr. 25, 2017 Rise Set
Actual Time
Civil Twilight
Nautical Twilight
Astronomical Twilight
Moon
Length of Visible Light
Length of Day
Tomorrow will be .
, % of the Moon is Illuminated

Today's Extremes

State Highs State Lows

Community

WunderPhotos

WunderBlog® & News

Nearby

Air Quality

  Air Quality AQ Index Pollutant
Not available.

Snow Depth

Station Depth Elevation

Earthquake Activity

City Distance Mag. Time & Date
Minimum magnitude displayed is 2.5.

Coastal Water Temperatures

Place Temperature

Stations

Nearby Weather Stations

Station Location Temp. Windchill Dew Point Humidity Wind Precip. Elev Updated Type
                   

Watches & Warnings

Wind Advisory
Issued: 12:52 PM PDT Apr. 25, 2017 – National Weather Service

... Wind Advisory remains in effect from 11 am to 8 PM PDT
Wednesday...

* timing: winds will increase Wednesday morning, becoming strong
for the afternoon before decreasing in the evening behind a
cold front.

* Winds: west to northwest 20 to 35 mph with gusts to 55 mph.

* Impacts: strong cross winds will cause hazardous driving
conditions, especially for high profile vehicles on north to
south roads.

Precautionary/preparedness actions...

Now is the time to secure loose outdoor items such as patio
furniture and trash cans before winds increase which could blow
these items away. The best thing to do is prepare ahead of time
by making sure you have extra food and water on hand, flashlights
with spare batteries and/or candles in the event of a power
outage.